createdAt,value
2019-02-04T00:00:38.130Z,3.73
2019-02-04T00:03:07.918Z,4.13
2019-02-04T00:05:34.099Z,3.97
2019-02-04T00:08:00.314Z,3.87
2019-02-04T00:10:26.505Z,3.70
2019-02-04T00:12:52.809Z,3.53
2019-02-04T00:15:19.399Z,3.30
2019-02-04T00:17:45.588Z,4.03
2019-02-04T00:20:12.175Z,3.87
2019-02-04T00:22:38.497Z,4.13
2019-02-04T00:25:05.993Z,3.43
2019-02-04T00:27:32.286Z,3.23
2019-02-04T00:29:58.656Z,3.13
2019-02-04T00:32:25.531Z,3.30
2019-02-04T00:34:51.829Z,3.83
2019-02-04T00:37:18.159Z,3.40
2019-02-04T00:39:44.433Z,3.57
2019-02-04T00:42:10.712Z,3.30
2019-02-04T00:44:36.927Z,2.77
2019-02-04T00:47:03.586Z,5.70
2019-02-04T00:49:29.764Z,5.70
2019-02-04T00:51:56.370Z,3.20
2019-02-04T00:54:22.677Z,3.30
2019-02-04T00:56:48.840Z,3.63
2019-02-04T00:59:15.156Z,4.20
2019-02-04T01:01:41.441Z,4.60
2019-02-04T01:04:07.628Z,4.33
2019-02-04T01:06:33.955Z,4.87
2019-02-04T01:09:00.244Z,4.73
2019-02-04T01:11:26.827Z,3.73
2019-02-04T01:13:53.012Z,3.97
2019-02-04T01:16:19.175Z,4.43
2019-02-04T01:18:45.347Z,4.07
2019-02-04T01:21:11.553Z,2.97
2019-02-04T01:23:37.715Z,4.27
2019-02-04T01:26:03.878Z,4.87
2019-02-04T01:28:30.063Z,4.90
2019-02-04T01:30:56.226Z,5.63
2019-02-04T01:33:22.379Z,6.87
2019-02-04T01:35:48.668Z,6.00
2019-02-04T01:38:14.837Z,5.73
2019-02-04T01:40:41.003Z,5.20
2019-02-04T01:43:07.329Z,6.43
2019-02-04T01:45:33.592Z,5.73
2019-02-04T01:48:00.181Z,6.60
2019-02-04T01:50:26.373Z,5.67
2019-02-04T01:52:52.535Z,5.13
2019-02-04T01:55:18.893Z,5.33
2019-02-04T01:57:47.888Z,5.47
2019-02-04T02:00:17.652Z,5.77
2019-02-04T02:02:43.815Z,4.83
2019-02-04T02:05:10.923Z,3.90
2019-02-04T02:07:37.184Z,4.83
2019-02-04T02:10:06.869Z,4.83
2019-02-04T02:12:33.173Z,5.87
2019-02-04T02:14:59.332Z,5.53
2019-02-04T02:17:26.722Z,5.93
2019-02-04T02:19:53.102Z,5.00
2019-02-04T02:22:19.776Z,5.27
2019-02-04T02:24:46.041Z,5.47
2019-02-04T02:27:12.233Z,5.53
2019-02-04T02:29:38.380Z,5.83
2019-02-04T02:32:05.455Z,4.20
2019-02-04T02:34:31.656Z,5.50
2019-02-04T02:36:57.838Z,4.57
2019-02-04T02:39:24.099Z,4.30
2019-02-04T02:41:50.612Z,4.63
2019-02-04T02:44:16.785Z,4.07
2019-02-04T02:46:42.932Z,4.40
2019-02-04T02:49:09.134Z,6.60
2019-02-04T02:51:35.297Z,4.97
2019-02-04T02:54:01.456Z,5.27
2019-02-04T02:56:27.662Z,4.30
2019-02-04T02:58:53.841Z,4.33
2019-02-04T03:01:20.503Z,4.30
2019-02-04T03:03:46.695Z,3.40
2019-02-04T03:06:12.975Z,4.30
2019-02-04T03:08:39.144Z,4.00
2019-02-04T03:11:05.448Z,4.20
2019-02-04T03:13:31.609Z,3.57
2019-02-04T03:15:57.885Z,4.70
2019-02-04T03:18:24.082Z,4.87
2019-02-04T03:20:50.464Z,5.50
2019-02-04T03:23:16.639Z,5.73
2019-02-04T03:25:42.828Z,4.70
2019-02-04T03:28:08.986Z,4.90
2019-02-04T03:30:35.164Z,4.87
2019-02-04T03:33:03.477Z,5.20
2019-02-04T03:35:29.635Z,5.17
2019-02-04T03:37:58.556Z,6.00
2019-02-04T03:40:26.957Z,6.10
2019-02-04T03:42:53.123Z,6.23
2019-02-04T03:45:19.586Z,6.53
2019-02-04T03:47:45.780Z,5.93
2019-02-04T03:50:13.139Z,6.30
2019-02-04T03:52:39.395Z,5.83
2019-02-04T03:55:09.228Z,6.60
2019-02-04T03:57:35.417Z,7.77
2019-02-04T04:00:01.731Z,6.53
2019-02-04T04:02:28.106Z,7.87
2019-02-04T04:04:54.380Z,12.27
2019-02-04T04:07:20.531Z,10.30
2019-02-04T04:09:46.740Z,9.80
2019-02-04T04:12:13.297Z,10.43
2019-02-04T04:14:39.571Z,10.03
2019-02-04T04:17:05.867Z,8.10
2019-02-04T04:19:32.037Z,9.07
2019-02-04T04:21:58.216Z,7.97
2019-02-04T04:24:24.536Z,5.77
2019-02-04T04:26:50.730Z,6.63
2019-02-04T04:29:16.999Z,6.67
2019-02-04T04:31:43.704Z,7.30
2019-02-04T04:34:09.922Z,6.93
2019-02-04T04:36:36.095Z,7.40
2019-02-04T04:39:04.786Z,7.57
2019-02-04T04:41:31.085Z,6.63
2019-02-04T04:43:57.250Z,6.87
2019-02-04T04:46:23.569Z,6.47
2019-02-04T04:48:49.749Z,6.97
2019-02-04T04:51:15.922Z,8.37
2019-02-04T04:53:42.218Z,10.00
2019-02-04T04:56:08.389Z,11.53
2019-02-04T04:58:34.661Z,9.40
2019-02-04T05:01:00.879Z,7.00
2019-02-04T05:03:27.050Z,6.53
2019-02-04T05:05:53.330Z,5.63
2019-02-04T05:08:19.552Z,5.73
2019-02-04T05:10:47.113Z,6.00
2019-02-04T05:13:13.285Z,6.90
2019-02-04T05:15:40.959Z,5.00
2019-02-04T05:18:07.101Z,5.30
2019-02-04T05:20:33.416Z,5.03
2019-02-04T05:22:59.612Z,7.30
2019-02-04T05:25:25.783Z,7.00
2019-02-04T05:27:52.353Z,9.70
2019-02-04T05:30:20.374Z,11.67
2019-02-04T05:32:46.544Z,6.83
2019-02-04T05:35:12.976Z,4.50
2019-02-04T05:37:39.149Z,4.87
2019-02-04T05:40:09.029Z,6.00
2019-02-04T05:42:35.335Z,9.83
2019-02-04T05:45:02.133Z,7.93
2019-02-04T05:47:28.295Z,7.60
2019-02-04T05:49:54.569Z,7.70
2019-02-04T05:52:20.781Z,7.70
2019-02-04T05:54:46.949Z,12.50
2019-02-04T05:57:13.126Z,11.93
2019-02-04T05:59:39.419Z,9.67
2019-02-04T06:02:05.706Z,15.20
2019-02-04T06:04:32.296Z,16.07
2019-02-04T06:06:58.512Z,9.93
2019-02-04T06:09:24.775Z,9.80
2019-02-04T06:11:51.055Z,11.40
2019-02-04T06:14:17.282Z,11.27
2019-02-04T06:16:43.437Z,13.07
2019-02-04T06:19:09.621Z,9.87
2019-02-04T06:21:35.812Z,13.33
2019-02-04T06:24:02.188Z,14.33
2019-02-04T06:26:28.363Z,15.53
2019-02-04T06:28:54.559Z,24.83
2019-02-04T06:31:20.739Z,19.00
2019-02-04T06:33:47.013Z,19.90
2019-02-04T06:36:13.240Z,20.67
2019-02-04T06:38:39.408Z,19.13
2019-02-04T06:41:05.574Z,22.10
2019-02-04T06:43:31.820Z,15.93
2019-02-04T06:45:58.079Z,12.90
2019-02-04T06:48:24.263Z,14.70
2019-02-04T06:50:51.005Z,13.80
2019-02-04T06:53:17.428Z,13.83
2019-02-04T06:55:43.606Z,13.47
2019-02-04T06:58:09.915Z,14.37
2019-02-04T07:00:36.089Z,12.90
2019-02-04T07:03:02.364Z,13.80
2019-02-04T07:05:28.679Z,14.47
2019-02-04T07:07:54.844Z,18.03
2019-02-04T07:10:25.622Z,22.67
2019-02-04T07:12:51.832Z,22.40
2019-02-04T07:15:18.455Z,24.27
2019-02-04T07:17:44.625Z,24.17
2019-02-04T07:20:14.513Z,23.27
2019-02-04T07:22:40.672Z,21.27
2019-02-04T07:25:12.398Z,17.80
2019-02-04T07:27:38.694Z,17.27
2019-02-04T07:30:29.312Z,18.73
2019-02-04T07:32:55.925Z,14.77
2019-02-04T07:35:22.095Z,12.00
2019-02-04T07:37:48.332Z,11.17
2019-02-04T07:40:17.630Z,12.17
2019-02-04T07:42:43.796Z,11.77
2019-02-04T07:45:10.103Z,10.93
2019-02-04T07:47:36.704Z,8.87
2019-02-04T07:50:05.274Z,8.00
2019-02-04T07:52:32.558Z,8.77
2019-02-04T07:54:58.759Z,9.47
2019-02-04T07:57:24.928Z,10.50
2019-02-04T07:59:51.104Z,9.97
2019-02-04T08:02:17.329Z,9.00
2019-02-04T08:04:43.607Z,10.90
2019-02-04T08:07:09.784Z,9.53
2019-02-04T08:09:36.284Z,9.37
2019-02-04T08:12:02.965Z,9.37
2019-02-04T08:14:29.229Z,10.03
2019-02-04T08:16:55.431Z,10.37
2019-02-04T08:19:21.698Z,9.50
2019-02-04T08:21:47.863Z,8.90
2019-02-04T08:24:14.160Z,13.77
2019-02-04T08:26:40.318Z,10.03
2019-02-04T08:29:06.625Z,9.20
2019-02-04T08:31:32.927Z,8.83
2019-02-04T08:33:59.196Z,11.10
2019-02-04T08:36:25.357Z,12.50
2019-02-04T08:38:52.517Z,10.00
2019-02-04T08:41:18.688Z,9.33
2019-02-04T08:43:44.960Z,10.13
2019-02-04T08:46:11.166Z,11.27
2019-02-04T08:48:37.736Z,9.50
2019-02-04T08:51:03.989Z,9.23
2019-02-04T08:53:30.280Z,9.50
2019-02-04T08:55:56.454Z,9.00
2019-02-04T08:58:22.632Z,9.67
2019-02-04T09:00:48.935Z,10.40
2019-02-04T09:03:15.590Z,9.20
2019-02-04T09:05:41.744Z,10.47
2019-02-04T09:08:11.077Z,9.20
2019-02-04T09:10:39.152Z,9.03
2019-02-04T09:13:06.372Z,11.17
2019-02-04T09:15:32.580Z,10.03
2019-02-04T09:17:59.548Z,9.97
2019-02-04T09:20:25.722Z,10.50
2019-02-04T09:22:52.004Z,9.47
2019-02-04T09:25:25.900Z,8.60
2019-02-04T09:27:52.281Z,9.30
2019-02-04T09:30:25.730Z,8.83
2019-02-04T09:32:52.053Z,8.13
2019-02-04T09:35:20.078Z,8.30
2019-02-04T09:37:46.412Z,8.53
2019-02-04T09:40:25.453Z,9.10
2019-02-04T09:42:51.705Z,8.93
2019-02-04T09:45:17.950Z,8.73
2019-02-04T09:47:44.111Z,10.90
2019-02-04T09:50:21.860Z,10.87
2019-02-04T09:52:47.541Z,10.77
2019-02-04T09:55:17.162Z,9.10
2019-02-04T09:57:43.532Z,9.07
2019-02-04T10:00:13.404Z,8.43
2019-02-04T10:02:42.464Z,8.07
2019-02-04T10:05:11.460Z,8.33
2019-02-04T10:07:37.623Z,8.43
2019-02-04T10:10:07.397Z,8.23
2019-02-04T10:12:33.790Z,7.60
2019-02-04T10:15:00.025Z,6.63
2019-02-04T10:17:26.238Z,7.50
2019-02-04T10:19:52.445Z,7.77
2019-02-04T10:22:18.745Z,8.73
2019-02-04T10:24:45.095Z,8.67
2019-02-04T10:27:11.991Z,8.03
2019-02-04T10:29:38.255Z,8.30
2019-02-04T10:32:04.749Z,8.73
2019-02-04T10:34:31.015Z,8.83
2019-02-04T10:36:57.211Z,8.13
2019-02-04T10:39:30.596Z,7.63
2019-02-04T10:41:57.009Z,7.47
2019-02-04T10:44:23.237Z,8.33
2019-02-04T10:46:49.501Z,7.77
2019-02-04T10:49:16.200Z,7.87
2019-02-04T10:51:42.530Z,9.13
2019-02-04T10:54:08.941Z,9.20
2019-02-04T10:56:35.203Z,8.90
2019-02-04T10:59:01.409Z,8.27
2019-02-04T11:01:27.799Z,9.43
2019-02-04T11:03:54.093Z,9.37
2019-02-04T11:06:20.280Z,8.87
2019-02-04T11:08:46.687Z,7.90
2019-02-04T11:11:13.060Z,8.60
2019-02-04T11:13:39.545Z,11.63
2019-02-04T11:16:06.061Z,10.13
2019-02-04T11:18:32.317Z,7.80
2019-02-04T11:20:58.661Z,6.87
2019-02-04T11:23:24.842Z,9.23
2019-02-04T11:25:53.154Z,5.53
2019-02-04T11:28:19.611Z,5.17
2019-02-04T11:30:49.369Z,5.67
2019-02-04T11:33:15.758Z,4.60
2019-02-04T11:35:42.070Z,4.23
2019-02-04T11:38:08.191Z,4.23
2019-02-04T11:40:38.910Z,4.27
2019-02-04T11:43:05.997Z,4.27
2019-02-04T11:45:32.353Z,10.37
2019-02-04T11:47:59.464Z,3.67
2019-02-04T11:50:25.838Z,4.20
2019-02-04T11:52:52.288Z,4.50
2019-02-04T11:55:19.076Z,4.63
2019-02-04T11:57:45.337Z,5.27
2019-02-04T12:00:18.226Z,5.43
2019-02-04T12:02:44.636Z,4.93
2019-02-04T12:05:14.384Z,5.77
2019-02-04T12:07:40.671Z,6.30
2019-02-04T12:10:36.037Z,6.73
2019-02-04T12:13:02.360Z,7.37
2019-02-04T12:15:28.531Z,8.80
2019-02-04T12:17:54.743Z,7.67
2019-02-04T12:20:21.054Z,5.30
2019-02-04T12:22:47.643Z,6.30
2019-02-04T12:25:19.962Z,4.93
2019-02-04T12:27:46.122Z,5.40
2019-02-04T12:30:16.492Z,4.90
2019-02-04T12:32:42.809Z,5.17
2019-02-04T12:35:10.575Z,3.90
2019-02-04T12:37:36.739Z,4.53
2019-02-04T12:40:05.543Z,5.23
2019-02-04T12:42:31.850Z,4.90
2019-02-04T12:44:58.066Z,5.77
2019-02-04T12:47:24.872Z,4.90
2019-02-04T12:49:51.133Z,4.80
2019-02-04T12:52:17.437Z,5.47
2019-02-04T12:54:43.623Z,5.13
2019-02-04T12:57:10.008Z,5.43
2019-02-04T12:59:36.263Z,6.20
2019-02-04T13:02:02.585Z,4.53
2019-02-04T13:04:28.843Z,5.43
2019-02-04T13:06:57.301Z,5.90
2019-02-04T13:09:23.498Z,6.37
2019-02-04T13:11:49.669Z,4.67
2019-02-04T13:14:15.959Z,5.53
2019-02-04T13:16:42.268Z,7.30
2019-02-04T13:19:11.301Z,7.07
2019-02-04T13:21:45.220Z,5.80
2019-02-04T13:24:05.680Z,9.93
2019-02-04T13:26:31.851Z,11.93
2019-02-04T13:28:58.004Z,16.03
2019-02-04T13:31:26.153Z,17.70
2019-02-04T13:33:52.326Z,21.10
2019-02-04T13:36:18.594Z,22.87
2019-02-04T13:38:47.079Z,25.80
2019-02-04T13:41:13.341Z,21.20
2019-02-04T13:43:42.486Z,27.20
2019-02-04T13:46:09.958Z,28.37
2019-02-04T13:48:36.460Z,31.83
2019-02-04T13:51:03.185Z,30.20
2019-02-04T13:53:29.565Z,30.90
2019-02-04T13:55:58.661Z,25.43
2019-02-04T13:58:24.841Z,29.30
2019-02-04T14:00:51.361Z,31.23
2019-02-04T14:03:18.055Z,30.90
2019-02-04T14:05:44.511Z,33.00
2019-02-04T14:08:10.729Z,33.07
2019-02-04T14:10:39.606Z,30.90
2019-02-04T14:13:06.279Z,28.00
2019-02-04T14:15:35.512Z,35.13
2019-02-04T14:18:01.361Z,33.30
2019-02-04T14:20:27.612Z,37.50
2019-02-04T14:22:53.843Z,37.30
2019-02-04T14:25:20.301Z,31.37
2019-02-04T14:27:46.669Z,37.13
2019-02-04T14:30:16.477Z,24.20
2019-02-04T14:32:42.661Z,24.07
2019-02-04T14:35:09.016Z,35.77
2019-02-04T14:37:35.518Z,29.07
2019-02-04T14:40:17.752Z,39.33
2019-02-04T14:42:31.442Z,39.80
2019-02-04T14:44:57.832Z,38.33
2019-02-04T14:47:30.775Z,38.43
2019-02-04T14:50:15.889Z,30.13
2019-02-04T14:52:45.724Z,39.50
2019-02-04T14:55:24.474Z,38.60
2019-02-04T14:58:09.621Z,40.70
2019-02-04T15:00:56.056Z,39.60
2019-02-04T15:03:43.860Z,36.27
2019-02-04T15:06:13.661Z,35.33
2019-02-04T15:08:52.400Z,32.77
2019-02-04T15:11:22.354Z,31.23
2019-02-04T15:14:07.578Z,31.90
2019-02-04T15:16:37.916Z,35.20
2019-02-04T15:19:24.290Z,34.23
2019-02-04T15:22:17.299Z,28.13
2019-02-04T15:25:06.909Z,33.07
2019-02-04T15:27:37.213Z,37.70
2019-02-04T15:30:10.001Z,35.10
2019-02-04T15:32:42.826Z,32.40
2019-02-04T15:35:36.800Z,31.67
2019-02-04T15:38:15.501Z,30.73
2019-02-04T15:40:51.110Z,32.30
2019-02-04T15:43:33.210Z,33.03
2019-02-04T15:46:08.665Z,36.67
2019-02-04T15:48:44.687Z,38.43
2019-02-04T15:51:20.584Z,41.80
2019-02-04T15:53:46.784Z,40.50
2019-02-04T15:56:12.943Z,47.37
2019-02-04T15:58:39.107Z,42.87
2019-02-04T16:01:05.524Z,35.73
2019-02-04T16:03:31.810Z,32.57
2019-02-04T16:05:57.975Z,28.63
2019-02-04T16:08:24.272Z,28.50
2019-02-04T16:10:50.567Z,25.63
2019-02-04T16:13:16.842Z,24.97
2019-02-04T16:15:43.134Z,25.83
2019-02-04T16:18:09.434Z,25.47
2019-02-04T16:20:35.719Z,24.83
2019-02-04T16:23:02.006Z,24.00
2019-02-04T16:25:28.174Z,24.67
2019-02-04T16:27:54.440Z,26.87
2019-02-04T16:30:21.024Z,24.33
2019-02-04T16:32:47.279Z,22.03
2019-02-04T16:35:16.358Z,22.87
2019-02-04T16:37:42.786Z,24.07
2019-02-04T16:40:12.260Z,23.20
2019-02-04T16:42:38.543Z,24.67
2019-02-04T16:45:08.047Z,22.93
2019-02-04T16:47:34.235Z,24.13
2019-02-04T16:50:00.439Z,22.27
2019-02-04T16:52:26.977Z,23.00
2019-02-04T16:54:53.248Z,23.17
2019-02-04T16:57:19.410Z,23.90
2019-02-04T16:59:45.721Z,23.87
2019-02-04T17:02:11.991Z,23.63
2019-02-04T17:04:38.266Z,22.73
2019-02-04T17:07:04.977Z,23.07
2019-02-04T17:09:31.148Z,26.97
2019-02-04T17:11:57.715Z,25.40
2019-02-04T17:14:24.025Z,24.77
2019-02-04T17:16:50.406Z,26.10
2019-02-04T17:19:16.564Z,27.10
2019-02-04T17:21:42.872Z,27.17
2019-02-04T17:24:09.158Z,31.27
2019-02-04T17:26:35.322Z,26.40
2019-02-04T17:29:01.674Z,25.67
2019-02-04T17:31:28.339Z,25.67
2019-02-04T17:33:54.666Z,24.20
2019-02-04T17:36:21.017Z,24.40
2019-02-04T17:38:47.291Z,25.60
2019-02-04T17:41:13.854Z,23.60
2019-02-04T17:43:40.149Z,22.43
2019-02-04T17:46:06.318Z,23.37
2019-02-04T17:48:32.475Z,24.83
2019-02-04T17:50:59.331Z,24.83
2019-02-04T17:53:33.951Z,24.20
2019-02-04T17:55:53.874Z,26.13
2019-02-04T17:58:20.082Z,25.83
2019-02-04T18:00:48.148Z,25.53
2019-02-04T18:03:14.708Z,27.80
2019-02-04T18:05:40.899Z,26.10
2019-02-04T18:08:07.663Z,23.57
2019-02-04T18:10:33.833Z,24.72
2019-02-04T18:13:00.020Z,32.23
2019-02-04T18:15:26.285Z,24.93
2019-02-04T18:17:52.563Z,23.90
2019-02-04T18:20:18.762Z,24.23
2019-02-04T18:22:45.026Z,25.10
2019-02-04T18:25:16.510Z,25.40
2019-02-04T18:27:42.879Z,22.90
2019-02-04T18:30:17.327Z,24.73
2019-02-04T18:32:43.492Z,23.80
2019-02-04T18:35:11.782Z,26.50
2019-02-04T18:37:38.153Z,25.33
2019-02-04T18:40:12.117Z,29.00
2019-02-04T18:42:38.222Z,27.67
2019-02-04T18:45:07.996Z,29.90
2019-02-04T18:47:40.257Z,38.57
2019-02-04T18:50:09.462Z,28.00
2019-02-04T18:52:37.105Z,30.10
2019-02-04T18:55:06.613Z,34.07
2019-02-04T18:57:34.938Z,31.93
2019-02-04T19:00:01.156Z,30.53
2019-02-04T19:02:27.328Z,32.50
2019-02-04T19:04:53.551Z,35.83
2019-02-04T19:07:19.721Z,30.60
2019-02-04T19:09:45.979Z,28.73
2019-02-04T19:12:12.827Z,30.97
2019-02-04T19:14:39.086Z,31.53
2019-02-04T19:17:05.266Z,32.57
2019-02-04T19:19:31.670Z,33.43
2019-02-04T19:21:57.801Z,36.10
2019-02-04T19:24:23.960Z,34.73
2019-02-04T19:26:50.203Z,36.23
2019-02-04T19:29:16.450Z,37.60
2019-02-04T19:31:43.028Z,41.90
2019-02-04T19:34:09.334Z,38.50
2019-02-04T19:36:35.599Z,36.83
2019-02-04T19:39:03.698Z,37.30
2019-02-04T19:41:29.898Z,35.53
2019-02-04T19:43:56.053Z,36.20
2019-02-04T19:46:22.218Z,41.67
2019-02-04T19:48:48.408Z,35.53
2019-02-04T19:51:15.079Z,37.93
2019-02-04T19:53:41.368Z,40.77
2019-02-04T19:56:07.648Z,38.73
2019-02-04T19:58:33.844Z,41.87
2019-02-04T20:01:00.005Z,39.37
2019-02-04T20:03:26.305Z,34.33
2019-02-04T20:05:52.579Z,32.20
2019-02-04T20:08:18.752Z,32.73
2019-02-04T20:10:45.467Z,28.80
2019-02-04T20:13:11.739Z,30.50
2019-02-04T20:15:38.130Z,29.90
2019-02-04T20:18:04.665Z,32.27
2019-02-04T20:20:30.842Z,35.30
2019-02-04T20:22:57.135Z,35.43
2019-02-04T20:25:30.262Z,30.70
2019-02-04T20:27:56.675Z,26.83
2019-02-04T20:30:45.820Z,28.53
2019-02-04T20:33:10.508Z,29.67
2019-02-04T20:35:35.925Z,25.40
2019-02-04T20:38:02.228Z,26.80
2019-02-04T20:40:28.482Z,27.23
2019-02-04T20:42:54.771Z,24.67
2019-02-04T20:45:21.565Z,23.93
2019-02-04T20:47:53.906Z,31.73
2019-02-04T20:50:29.064Z,28.73
2019-02-04T20:52:55.231Z,26.03
2019-02-04T20:55:21.392Z,26.53
2019-02-04T20:57:48.586Z,27.37
2019-02-04T21:00:18.155Z,27.23
2019-02-04T21:02:44.435Z,25.03
2019-02-04T21:05:10.742Z,24.57
2019-02-04T21:07:36.904Z,25.17
2019-02-04T21:10:06.678Z,24.27
2019-02-04T21:12:32.988Z,21.70
2019-02-04T21:14:59.277Z,19.60
2019-02-04T21:17:29.576Z,21.97
2019-02-04T21:19:55.786Z,21.67
2019-02-04T21:22:22.056Z,21.13
2019-02-04T21:24:56.195Z,21.67
2019-02-04T21:27:16.573Z,21.83
2019-02-04T21:29:42.821Z,20.43
2019-02-04T21:32:09.130Z,20.60
2019-02-04T21:34:35.352Z,19.27
2019-02-04T21:37:01.852Z,19.73
2019-02-04T21:39:28.033Z,19.07
2019-02-04T21:41:54.230Z,18.83
2019-02-04T21:44:20.401Z,16.60
2019-02-04T21:46:46.574Z,17.73
2019-02-04T21:49:12.769Z,16.77
2019-02-04T21:51:38.942Z,15.23
2019-02-04T21:54:05.205Z,13.40
2019-02-04T21:56:31.935Z,19.03
2019-02-04T21:58:58.245Z,18.57
2019-02-04T22:01:24.426Z,16.73
2019-02-04T22:03:51.596Z,19.47
2019-02-04T22:06:17.866Z,16.43
2019-02-04T22:08:44.140Z,18.03
2019-02-04T22:11:10.437Z,16.70
2019-02-04T22:13:36.615Z,18.33
2019-02-04T22:16:03.276Z,19.80
2019-02-04T22:18:29.489Z,19.87
2019-02-04T22:20:55.757Z,24.53
2019-02-04T22:23:21.923Z,21.80
2019-02-04T22:25:48.505Z,20.43
2019-02-04T22:28:14.669Z,22.40
2019-02-04T22:30:41.345Z,24.40
2019-02-04T22:33:07.817Z,23.20
2019-02-04T22:35:34.086Z,21.67
2019-02-04T22:38:00.460Z,17.77
2019-02-04T22:40:29.727Z,17.70
2019-02-04T22:42:56.779Z,17.60
2019-02-04T22:45:23.046Z,17.10
2019-02-04T22:47:49.249Z,13.20
2019-02-04T22:50:22.157Z,16.93
2019-02-04T22:52:48.317Z,17.77
2019-02-04T22:55:15.831Z,15.90
2019-02-04T22:57:41.997Z,17.03
2019-02-04T23:00:23.461Z,15.23
2019-02-04T23:02:49.747Z,14.37
2019-02-04T23:05:15.932Z,17.03
2019-02-04T23:07:42.232Z,16.20
2019-02-04T23:10:08.818Z,15.90
2019-02-04T23:12:35.084Z,14.80
2019-02-04T23:15:01.387Z,14.77
2019-02-04T23:17:27.564Z,13.70
2019-02-04T23:19:53.952Z,11.50
2019-02-04T23:22:20.154Z,14.50
2019-02-04T23:24:46.441Z,13.40
2019-02-04T23:27:12.621Z,15.23
2019-02-04T23:29:38.943Z,15.27
2019-02-04T23:32:05.122Z,14.80
2019-02-04T23:34:31.393Z,13.87
2019-02-04T23:36:57.591Z,12.67
2019-02-04T23:39:23.784Z,14.83
2019-02-04T23:41:49.944Z,14.93
2019-02-04T23:44:16.276Z,14.83
2019-02-04T23:46:42.460Z,13.87
2019-02-04T23:49:08.915Z,14.50
2019-02-04T23:51:35.223Z,13.47
2019-02-04T23:54:01.395Z,13.67
2019-02-04T23:56:27.567Z,12.80
2019-02-04T23:58:53.893Z,13.47
